Time;durP1;ratioP1;P1;durP2;ratioP2;P2;SDS_P1;SDS_P2;PMS_P1;PMS_P2;Temp;Humidity;BMP_temperature;BMP_pressure;BME280_temperature;BME280_humidity;BME280_pressure;Samples;Min_cycle;Max_cycle;Signal;HPM_P1;HPM_P2
2021/01/17 00:02:18;;;;;;;74.20;15.50;;;-1.30;1.00;;;;;;5052603;28;20754;-70
2021/01/17 00:04:44;;;;;;;74.82;15.02;;;-1.30;1.00;;;;;;5052593;28;20257;-71
2021/01/17 00:07:11;;;;;;;76.65;15.95;;;-1.30;1.00;;;;;;5052601;28;20205;-70
2021/01/17 00:09:37;;;;;;;83.03;16.90;;;-1.30;1.00;;;;;;5052367;28;20283;-70
2021/01/17 00:12:05;;;;;;;81.25;17.77;;;-1.30;1.00;;;;;;5052209;28;20205;-70
2021/01/17 00:14:32;;;;;;;80.70;18.05;;;-1.30;1.00;;;;;;5052462;28;20230;-70
2021/01/17 00:16:59;;;;;;;75.15;16.17;;;-1.30;1.00;;;;;;5052567;28;20224;-70
2021/01/17 00:19:25;;;;;;;78.60;18.23;;;-1.30;1.00;;;;;;5052080;28;20650;-70
2021/01/17 00:21:52;;;;;;;80.95;17.65;;;-1.30;1.00;;;;;;5052228;28;20300;-70
2021/01/17 00:24:18;;;;;;;74.50;16.25;;;-1.30;1.00;;;;;;5052200;28;20245;-70
2021/01/17 00:26:44;;;;;;;82.47;17.60;;;-1.30;1.00;;;;;;5052126;28;20263;-70
2021/01/17 00:29:12;;;;;;;76.18;15.98;;;-1.30;1.00;;;;;;5051457;28;20229;-70
2021/01/17 00:31:38;;;;;;;78.15;16.60;;;-1.30;1.00;;;;;;5052382;28;20296;-70
2021/01/17 00:34:04;;;;;;;78.90;16.70;;;-1.30;1.00;;;;;;5051796;28;20241;-70
2021/01/17 00:36:37;;;;;;;79.95;16.60;;;-1.40;1.00;;;;;;5052146;28;20586;-70
2021/01/17 00:39:04;;;;;;;77.43;16.83;;;-1.40;1.00;;;;;;5051800;28;20205;-71
2021/01/17 00:41:31;;;;;;;81.35;18.73;;;-1.40;1.00;;;;;;5052285;28;20313;-70
2021/01/17 00:43:57;;;;;;;81.30;17.23;;;-1.40;1.00;;;;;;5051849;28;20209;-71
2021/01/17 00:46:25;;;;;;;76.75;17.00;;;-1.40;1.00;;;;;;5051982;28;20201;-70
2021/01/17 00:48:51;;;;;;;76.93;16.08;;;-1.40;1.00;;;;;;5051639;28;20735;-71
2021/01/17 00:51:19;;;;;;;76.68;15.50;;;-1.40;1.00;;;;;;5051915;28;20277;-70
2021/01/17 00:53:45;;;;;;;81.93;18.00;;;-1.50;1.00;;;;;;5051683;28;20241;-70
2021/01/17 00:56:12;;;;;;;80.70;18.65;;;-1.40;1.00;;;;;;5051621;28;20743;-71
2021/01/17 00:58:38;;;;;;;86.43;19.98;;;-1.40;1.00;;;;;;5051779;28;20205;-71
2021/01/17 01:01:04;;;;;;;82.28;18.38;;;-1.40;1.00;;;;;;5051741;28;20213;-70
2021/01/17 01:03:31;;;;;;;85.47;19.73;;;-1.40;1.00;;;;;;5051744;28;20301;-71
2021/01/17 01:05:58;;;;;;;77.88;17.85;;;-1.40;1.00;;;;;;5051413;28;20251;-70
2021/01/17 01:08:24;;;;;;;76.22;16.30;;;-1.40;1.00;;;;;;5051339;28;20316;-70
2021/01/17 01:10:50;;;;;;;82.95;18.00;;;-1.40;1.00;;;;;;5051608;28;20206;-71
2021/01/17 01:13:16;;;;;;;83.28;20.13;;;-1.40;1.00;;;;;;5051594;28;20264;-70
2021/01/17 01:15:43;;;;;;;80.28;17.25;;;-1.40;1.00;;;;;;5051331;28;20260;-71
2021/01/17 01:18:09;;;;;;;79.65;16.33;;;-1.40;1.00;;;;;;5051352;28;20217;-70
2021/01/17 01:20:36;;;;;;;82.20;20.10;;;-1.40;1.00;;;;;;5051306;28;20260;-70
2021/01/17 01:23:03;;;;;;;85.10;19.75;;;-1.40;1.00;;;;;;5051346;28;20213;-71
2021/01/17 01:25:29;;;;;;;85.80;19.58;;;-1.40;1.00;;;;;;5051484;28;20268;-70
2021/01/17 01:27:55;;;;;;;85.38;20.13;;;-1.40;1.00;;;;;;5051470;28;20217;-70
2021/01/17 01:30:22;;;;;;;81.10;17.60;;;-1.40;1.00;;;;;;5051531;28;20575;-70
2021/01/17 01:32:51;;;;;;;82.65;20.38;;;-1.50;1.00;;;;;;5051329;28;20206;-70
2021/01/17 01:35:18;;;;;;;79.90;18.98;;;-1.50;1.00;;;;;;5051091;28;20230;-71
2021/01/17 01:37:45;;;;;;;82.00;17.90;;;-1.50;1.00;;;;;;5051201;28;20208;-70
2021/01/17 01:40:12;;;;;;;87.72;21.13;;;-1.50;1.00;;;;;;5053196;28;20205;-70
2021/01/17 01:42:43;;;;;;;80.57;17.30;;;-1.50;1.00;;;;;;5055348;28;20209;-70
2021/01/17 01:45:10;;;;;;;80.15;18.10;;;-1.50;1.00;;;;;;5055228;28;20310;-70
2021/01/17 01:47:37;;;;;;;92.38;23.20;;;-1.50;1.00;;;;;;5055069;28;20205;-70
2021/01/17 01:50:05;;;;;;;81.18;18.23;;;-1.50;1.00;;;;;;5054964;28;20237;-70
2021/01/17 01:52:32;;;;;;;81.07;18.98;;;-1.50;1.00;;;;;;5055105;28;20205;-71
2021/01/17 01:54:59;;;;;;;82.00;18.38;;;-1.50;1.00;;;;;;5054967;28;20712;-71
2021/01/17 01:57:26;;;;;;;86.78;21.20;;;-1.50;1.00;;;;;;5055002;28;20616;-72
2021/01/17 01:59:53;;;;;;;85.90;20.23;;;-1.50;1.00;;;;;;5054973;28;20251;-71
2021/01/17 02:02:20;;;;;;;85.07;20.25;;;-1.50;1.00;;;;;;5054709;28;20205;-70
2021/01/17 02:04:46;;;;;;;81.88;19.30;;;-1.50;1.00;;;;;;5055032;28;20261;-71
2021/01/17 02:07:35;;;;;;;85.22;19.67;;;-1.50;1.00;;;;;;5054705;28;20216;-71
2021/01/17 02:10:03;;;;;;;86.50;19.83;;;-1.50;1.00;;;;;;5054729;28;20233;-71
2021/01/17 02:12:33;;;;;;;85.90;20.88;;;-1.50;1.00;;;;;;5054961;28;20213;-71
2021/01/17 02:15:05;;;;;;;84.63;21.42;;;-1.50;1.00;;;;;;5054848;28;20979;-70
2021/01/17 02:17:34;;;;;;;86.65;20.67;;;-1.50;1.00;;;;;;5054562;28;20594;-70
2021/01/17 02:20:08;;;;;;;86.45;19.92;;;-1.50;1.00;;;;;;5054785;28;20201;-70
2021/01/17 02:22:44;;;;;;;87.25;20.48;;;-1.50;1.00;;;;;;5054493;28;20209;-70
2021/01/17 02:25:12;;;;;;;81.93;20.08;;;-1.50;1.00;;;;;;5053244;28;20316;-70
2021/01/17 02:27:39;;;;;;;86.75;20.90;;;-1.50;1.00;;;;;;5054295;28;20249;-70
2021/01/17 02:30:09;;;;;;;88.80;20.88;;;-1.50;1.00;;;;;;5053202;28;20252;-70
2021/01/17 02:32:39;;;;;;;87.32;21.35;;;-1.50;1.00;;;;;;5054069;28;20210;-70
2021/01/17 02:35:06;;;;;;;86.28;21.63;;;-1.50;1.00;;;;;;5054045;28;20317;-70
2021/01/17 02:37:39;;;;;;;84.07;19.70;;;-1.60;1.00;;;;;;5054182;28;20351;-71
2021/01/17 02:40:13;;;;;;;82.18;19.23;;;-1.60;1.00;;;;;;5053982;28;20300;-70
2021/01/17 02:42:41;;;;;;;88.15;22.52;;;-1.50;1.00;;;;;;5054279;28;20581;-70
2021/01/17 02:45:09;;;;;;;81.80;19.13;;;-1.60;1.00;;;;;;5054178;28;20229;-71
2021/01/17 02:47:35;;;;;;;87.90;21.20;;;-1.50;1.00;;;;;;5054054;28;20214;-71
2021/01/17 02:50:02;;;;;;;83.60;21.55;;;-1.60;1.00;;;;;;5053579;28;20226;-71
2021/01/17 02:52:38;;;;;;;86.65;20.15;;;-1.60;1.00;;;;;;5053564;28;20224;-70
2021/01/17 02:55:06;;;;;;;93.65;25.08;;;-1.60;1.00;;;;;;5053676;28;20312;-71
2021/01/17 02:57:37;;;;;;;81.95;21.30;;;-1.60;1.00;;;;;;5053884;28;20216;-71
2021/01/17 03:00:08;;;;;;;88.40;21.38;;;-1.60;1.00;;;;;;5053820;28;20202;-71
2021/01/17 03:02:36;;;;;;;85.50;23.00;;;-1.60;1.00;;;;;;5053754;28;20210;-71
2021/01/17 03:05:05;;;;;;;88.68;22.00;;;-1.60;1.00;;;;;;5053404;28;20279;-71
2021/01/17 03:07:34;;;;;;;87.15;22.60;;;-1.60;1.00;;;;;;5053859;28;20209;-72
2021/01/17 03:10:04;;;;;;;90.45;23.05;;;-1.60;1.00;;;;;;5053777;28;20225;-71
2021/01/17 03:12:30;;;;;;;84.07;21.30;;;-1.60;1.00;;;;;;5053442;28;20212;-70
2021/01/17 03:14:59;;;;;;;89.18;23.13;;;-1.60;1.00;;;;;;5053266;28;20252;-70
2021/01/17 03:17:26;;;;;;;89.38;22.95;;;-1.60;1.00;;;;;;5053189;28;20946;-70
2021/01/17 03:19:53;;;;;;;87.78;23.15;;;-1.60;1.00;;;;;;5053500;28;20202;-70
2021/01/17 03:22:19;;;;;;;86.05;22.88;;;-1.60;1.00;;;;;;5053465;28;20209;-70
2021/01/17 03:24:45;;;;;;;88.00;23.15;;;-1.60;1.00;;;;;;5053382;28;20232;-70
2021/01/17 03:27:12;;;;;;;85.78;23.55;;;-1.60;1.00;;;;;;5053348;28;20209;-70
2021/01/17 03:29:38;;;;;;;86.00;21.58;;;-1.60;1.00;;;;;;5053133;28;20700;-71
2021/01/17 03:32:05;;;;;;;90.85;21.83;;;-1.50;1.00;;;;;;5052888;28;20265;-70
2021/01/17 03:34:32;;;;;;;87.25;22.42;;;-1.50;1.00;;;;;;5053292;28;20759;-71
2021/01/17 03:36:59;;;;;;;85.00;22.00;;;-1.50;1.00;;;;;;5053159;28;20205;-70
2021/01/17 03:39:25;;;;;;;89.13;22.05;;;-1.50;1.00;;;;;;5053125;28;20229;-70
2021/01/17 03:41:52;;;;;;;86.15;21.08;;;-1.50;1.00;;;;;;5052832;28;20212;-70
2021/01/17 03:44:18;;;;;;;89.40;21.60;;;-1.50;1.00;;;;;;5052955;28;20206;-70
2021/01/17 03:46:44;;;;;;;89.00;22.10;;;-1.60;1.00;;;;;;5052730;28;20220;-70
2021/01/17 03:49:11;;;;;;;82.70;20.63;;;-1.60;1.00;;;;;;5053012;28;20640;-71
2021/01/17 03:51:38;;;;;;;88.13;19.85;;;-1.50;1.00;;;;;;5052926;28;20205;-71
2021/01/17 03:54:04;;;;;;;88.05;21.67;;;-1.50;1.00;;;;;;5052518;28;20201;-70
2021/01/17 03:56:31;;;;;;;85.68;21.60;;;-1.50;1.00;;;;;;5052747;28;20219;-70
2021/01/17 03:58:57;;;;;;;90.32;20.70;;;-1.50;1.00;;;;;;5052656;28;20322;-71
2021/01/17 04:01:23;;;;;;;86.32;21.65;;;-1.50;1.00;;;;;;5052574;28;20218;-71
2021/01/17 04:03:50;;;;;;;88.97;21.75;;;-1.50;1.00;;;;;;5051751;28;20339;-71
2021/01/17 04:06:16;;;;;;;82.80;19.42;;;-1.50;1.00;;;;;;5052633;28;20375;-71
2021/01/17 04:08:43;;;;;;;85.07;20.85;;;-1.50;1.00;;;;;;5052274;28;20827;-70
2021/01/17 04:11:10;;;;;;;90.15;20.95;;;-1.50;1.00;;;;;;5052482;28;20209;-71
2021/01/17 04:13:36;;;;;;;86.40;23.08;;;-1.50;1.00;;;;;;5052112;28;20205;-71
2021/01/17 04:16:03;;;;;;;90.25;23.55;;;-1.50;1.00;;;;;;5052602;28;20235;-71
2021/01/17 04:18:29;;;;;;;89.63;20.95;;;-1.50;1.00;;;;;;5052235;28;20213;-70
2021/01/17 04:20:55;;;;;;;84.25;20.20;;;-1.50;1.00;;;;;;5052482;28;20205;-71
2021/01/17 04:23:22;;;;;;;91.03;22.58;;;-1.50;1.00;;;;;;5052058;28;20584;-71
2021/01/17 04:25:50;;;;;;;86.85;21.50;;;-1.50;1.00;;;;;;5051997;28;20228;-71
2021/01/17 04:28:17;;;;;;;84.65;20.70;;;-1.50;1.00;;;;;;5051845;28;20255;-71
2021/01/17 04:30:43;;;;;;;85.28;20.85;;;-1.50;1.00;;;;;;5052307;28;20257;-70
2021/01/17 04:33:09;;;;;;;87.50;22.15;;;-1.50;1.00;;;;;;5052005;28;20220;-70
2021/01/17 04:35:36;;;;;;;86.22;20.83;;;-1.50;1.00;;;;;;5052001;28;20763;-71
2021/01/17 04:38:02;;;;;;;87.88;21.85;;;-1.50;1.00;;;;;;5052021;28;20209;-71
2021/01/17 04:40:30;;;;;;;89.63;22.38;;;-1.50;1.00;;;;;;5051827;28;20207;-71
2021/01/17 04:43:07;;;;;;;86.63;23.17;;;-1.50;1.00;;;;;;5051657;28;20343;-71
2021/01/17 04:45:34;;;;;;;83.40;20.40;;;-1.50;1.00;;;;;;5051802;28;20225;-70
2021/01/17 04:48:02;;;;;;;86.88;19.80;;;-1.50;1.00;;;;;;5051761;28;20217;-72
2021/01/17 04:50:31;;;;;;;94.03;23.20;;;-1.50;1.00;;;;;;5052214;28;20225;-71
2021/01/17 04:53:00;;;;;;;90.03;22.27;;;-1.50;1.00;;;;;;5051658;28;20202;-70
2021/01/17 04:55:27;;;;;;;86.30;21.00;;;-1.50;1.00;;;;;;5051439;28;20321;-70
2021/01/17 04:58:08;;;;;;;91.50;21.45;;;-1.50;1.00;;;;;;5051863;28;20209;-71
2021/01/17 05:00:39;;;;;;;90.65;22.00;;;-1.50;1.00;;;;;;5051791;28;20228;-71
2021/01/17 05:03:18;;;;;;;84.00;20.13;;;-1.50;1.00;;;;;;5051604;28;20209;-71
2021/01/17 05:05:52;;;;;;;88.45;20.65;;;-1.50;1.00;;;;;;5051303;28;20232;-71
2021/01/17 05:08:31;;;;;;;86.07;21.92;;;-1.50;1.00;;;;;;5051701;28;20206;-71
2021/01/17 05:11:03;;;;;;;84.05;20.05;;;-1.50;1.00;;;;;;5051628;28;20201;-71
2021/01/17 05:13:37;;;;;;;88.45;22.35;;;-1.50;1.00;;;;;;5051323;28;20267;-71
2021/01/17 05:16:06;;;;;;;87.25;20.58;;;-1.50;1.00;;;;;;5051267;28;20225;-71
2021/01/17 05:18:33;;;;;;;92.15;20.48;;;-1.50;1.00;;;;;;5051262;28;20673;-71
2021/01/17 05:21:01;;;;;;;90.93;22.17;;;-1.50;1.00;;;;;;5051505;28;20205;-71
2021/01/17 05:23:33;;;;;;;83.50;20.98;;;-1.50;1.00;;;;;;5051179;28;20209;-71
2021/01/17 05:26:01;;;;;;;88.35;20.95;;;-1.50;1.00;;;;;;5051289;28;20225;-71
2021/01/17 05:28:30;;;;;;;92.28;19.13;;;-1.50;1.00;;;;;;5051210;28;20209;-71
2021/01/17 05:30:58;;;;;;;85.75;20.80;;;-1.50;1.00;;;;;;5051198;28;20251;-71
2021/01/17 05:33:32;;;;;;;87.10;21.92;;;-1.50;1.00;;;;;;5051387;28;20232;-71
2021/01/17 05:36:00;;;;;;;86.05;21.23;;;-1.50;1.00;;;;;;5051167;28;20226;-71
2021/01/17 05:38:26;;;;;;;87.47;19.80;;;-1.50;1.00;;;;;;5051155;28;20263;-70
2021/01/17 05:40:54;;;;;;;87.78;20.58;;;-1.50;1.00;;;;;;5051188;28;20205;-71
2021/01/17 05:43:20;;;;;;;87.18;20.90;;;-1.50;1.00;;;;;;5051000;28;20214;-70
2021/01/17 05:45:46;;;;;;;95.38;22.90;;;-1.50;1.00;;;;;;5051146;28;20245;-71
2021/01/17 05:48:14;;;;;;;91.18;21.52;;;-1.50;1.00;;;;;;5051225;28;20205;-71
2021/01/17 05:50:44;;;;;;;89.88;22.30;;;-1.50;1.00;;;;;;5051170;28;20260;-71
2021/01/17 05:53:11;;;;;;;90.07;21.83;;;-1.50;1.00;;;;;;5051108;28;20210;-72
2021/01/17 05:55:38;;;;;;;87.45;20.98;;;-1.40;1.00;;;;;;5051030;28;20325;-70
2021/01/17 05:58:20;;;;;;;83.10;21.45;;;-1.40;1.00;;;;;;5050898;28;20216;-71
2021/01/17 06:00:46;;;;;;;81.93;20.27;;;-1.40;1.00;;;;;;5051197;28;20854;-72
2021/01/17 06:03:19;;;;;;;84.90;19.60;;;-1.50;1.00;;;;;;5050867;28;20202;-71
2021/01/17 06:05:50;;;;;;;86.10;19.63;;;-1.50;1.00;;;;;;5050879;28;20230;-71
2021/01/17 06:08:20;;;;;;;94.72;23.35;;;-1.50;1.00;;;;;;5050909;28;20562;-71
2021/01/17 06:10:47;;;;;;;88.47;20.92;;;-1.50;1.00;;;;;;5050870;28;20728;-71
2021/01/17 06:13:31;;;;;;;93.53;21.42;;;-1.50;1.00;;;;;;5050880;28;20576;-71
2021/01/17 06:15:58;;;;;;;86.68;19.90;;;-1.50;1.00;;;;;;5050938;28;20320;-71
2021/01/17 06:18:26;;;;;;;86.00;21.88;;;-1.50;1.00;;;;;;5050671;28;20577;-71
2021/01/17 06:20:58;;;;;;;86.07;18.83;;;-1.50;1.00;;;;;;5050768;28;20209;-71
2021/01/17 06:23:25;;;;;;;94.53;23.25;;;-1.50;1.00;;;;;;5050817;28;20266;-71
2021/01/17 06:26:03;;;;;;;91.05;20.75;;;-1.50;1.00;;;;;;5051907;28;20226;-71
2021/01/17 06:28:40;;;;;;;83.05;20.52;;;-1.40;1.00;;;;;;5054440;28;20205;-71
2021/01/17 06:31:07;;;;;;;93.13;22.23;;;-1.40;1.00;;;;;;5054272;28;20212;-71
2021/01/17 06:33:35;;;;;;;88.57;21.83;;;-1.40;1.00;;;;;;5054395;28;20292;-71
2021/01/17 06:36:14;;;;;;;87.57;21.88;;;-1.40;1.00;;;;;;5054372;28;20590;-71
2021/01/17 06:38:41;;;;;;;89.45;20.13;;;-1.40;1.00;;;;;;5054314;28;20237;-70
2021/01/17 06:41:07;;;;;;;87.15;21.67;;;-1.40;1.00;;;;;;5054228;28;20242;-71
2021/01/17 06:43:39;;;;;;;88.78;20.67;;;-1.40;1.00;;;;;;5053894;28;20206;-71
2021/01/17 06:46:06;;;;;;;95.65;22.58;;;-1.40;1.00;;;;;;5054029;28;20716;-71
2021/01/17 06:48:32;;;;;;;89.20;19.83;;;-1.50;1.00;;;;;;5054050;28;20213;-71
2021/01/17 06:51:16;;;;;;;93.70;23.05;;;-1.50;1.00;;;;;;5054146;28;20201;-71
2021/01/17 06:53:52;;;;;;;95.97;22.85;;;-1.50;1.00;;;;;;5053700;28;20296;-71
2021/01/17 06:56:19;;;;;;;91.43;21.63;;;-1.50;1.00;;;;;;5053672;28;20221;-70
2021/01/17 06:58:46;;;;;;;93.68;24.25;;;-1.50;1.00;;;;;;5053739;28;20244;-71
2021/01/17 07:01:14;;;;;;;96.00;23.20;;;-1.50;1.00;;;;;;5053874;28;20210;-71
2021/01/17 07:03:52;;;;;;;93.40;22.85;;;-1.40;1.00;;;;;;5053554;28;20209;-71
2021/01/17 07:06:39;;;;;;;94.15;25.65;;;-1.40;1.00;;;;;;5053389;28;20731;-71
2021/01/17 07:09:09;;;;;;;94.18;21.20;;;-1.40;1.00;;;;;;5053422;28;20233;-71
2021/01/17 07:11:55;;;;;;;95.60;22.90;;;-1.40;1.00;;;;;;5053626;28;20210;-71
2021/01/17 07:14:28;;;;;;;95.75;23.30;;;-1.40;1.00;;;;;;5053662;28;20603;-71
2021/01/17 07:16:57;;;;;;;97.85;25.35;;;-1.40;1.00;;;;;;5053392;28;20209;-70
2021/01/17 07:19:31;;;;;;;91.70;21.27;;;-1.40;1.00;;;;;;5053315;28;20209;-70
2021/01/17 07:22:03;;;;;;;91.72;23.40;;;-1.40;1.00;;;;;;5053261;28;20740;-71
2021/01/17 07:24:31;;;;;;;84.88;19.80;;;-1.40;1.00;;;;;;5053410;28;20226;-70
2021/01/17 07:27:08;;;;;;;91.30;22.50;;;-1.40;1.00;;;;;;5053170;28;20205;-70
2021/01/17 07:29:36;;;;;;;90.88;21.85;;;-1.40;1.00;;;;;;5053205;28;20229;-71
2021/01/17 07:32:21;;;;;;;89.72;22.58;;;-1.40;1.00;;;;;;5053173;28;20654;-70
2021/01/17 07:34:53;;;;;;;87.55;20.40;;;-1.40;1.00;;;;;;5053312;28;20236;-71
2021/01/17 07:37:22;;;;;;;88.95;21.35;;;-1.40;1.00;;;;;;5053128;28;20676;-71
2021/01/17 07:39:56;;;;;;;87.50;20.85;;;-1.40;1.00;;;;;;5053052;28;20201;-71
2021/01/17 07:42:23;;;;;;;94.80;23.70;;;-1.30;1.00;;;;;;5053134;28;20213;-71
2021/01/17 07:44:55;;;;;;;89.25;20.42;;;-1.30;1.00;;;;;;5052876;28;20309;-71
2021/01/17 07:47:29;;;;;;;93.00;23.92;;;-1.30;1.00;;;;;;5052971;28;20596;-71
2021/01/17 07:49:56;;;;;;;91.03;22.55;;;-1.30;1.00;;;;;;5052939;28;20619;-71
2021/01/17 07:52:25;;;;;;;90.95;22.88;;;-1.20;1.00;;;;;;5052454;28;20209;-71
2021/01/17 07:54:53;;;;;;;91.55;25.02;;;-1.20;1.00;;;;;;5052936;28;20225;-70
2021/01/17 07:57:24;;;;;;;93.65;23.42;;;-1.20;1.00;;;;;;5052843;28;20211;-70
2021/01/17 07:59:51;;;;;;;98.00;22.10;;;-1.10;1.00;;;;;;5052900;28;20204;-70
2021/01/17 08:02:25;;;;;;;95.38;26.30;;;-1.20;1.00;;;;;;5052389;28;20209;-71
2021/01/17 08:04:51;;;;;;;98.50;22.77;;;-1.10;1.00;;;;;;5052578;28;20232;-71
2021/01/17 08:07:32;;;;;;;96.95;25.52;;;-1.10;1.00;;;;;;5052793;28;20258;-71
2021/01/17 08:09:59;;;;;;;95.82;23.77;;;-1.10;1.00;;;;;;5052576;28;20224;-71
2021/01/17 08:12:46;;;;;;;95.93;24.42;;;-1.00;1.00;;;;;;5052314;28;20217;-70
2021/01/17 08:15:28;;;;;;;96.35;25.55;;;-1.00;1.00;;;;;;5052186;28;20291;-69
2021/01/17 08:17:54;;;;;;;93.22;23.50;;;-1.00;1.00;;;;;;5052268;28;20213;-70
2021/01/17 08:20:28;;;;;;;98.15;23.63;;;-1.00;1.00;;;;;;5052510;28;20209;-71
2021/01/17 08:23:13;;;;;;;98.05;25.02;;;-0.90;1.00;;;;;;5052063;28;20209;-70
2021/01/17 08:25:54;;;;;;;92.43;22.98;;;-0.90;1.00;;;;;;5052033;28;20260;-70
2021/01/17 08:28:38;;;;;;;95.15;23.65;;;-0.80;1.00;;;;;;5051980;28;20301;-71
2021/01/17 08:31:44;;;;;;;101.65;25.13;;;-0.80;1.00;;;;;;5051976;28;20272;-71
2021/01/17 08:34:16;;;;;;;99.60;26.02;;;-0.70;1.00;;;;;;5051608;28;20210;-71
2021/01/17 08:36:44;;;;;;;104.13;25.15;;;-0.70;1.00;;;;;;5052202;28;20266;-71
2021/01/17 08:39:12;;;;;;;93.85;23.75;;;-0.60;1.00;;;;;;5051887;28;20251;-71
2021/01/17 08:41:40;;;;;;;97.60;25.65;;;-0.60;1.00;;;;;;5052181;28;20235;-71
2021/01/17 08:44:12;;;;;;;97.10;26.00;;;-0.50;1.00;;;;;;5051639;28;20210;-71
2021/01/17 08:46:40;;;;;;;99.00;25.05;;;-0.50;1.00;;;;;;5051126;28;20625;-70
2021/01/17 08:49:07;;;;;;;97.70;25.85;;;-0.40;1.00;;;;;;5051526;28;20606;-70
2021/01/17 08:51:33;;;;;;;96.57;26.05;;;-0.40;1.00;;;;;;5052155;28;20205;-68
2021/01/17 08:54:25;;;;;;;97.50;26.10;;;-0.30;1.00;;;;;;5051663;28;20209;-70
2021/01/17 08:56:51;;;;;;;91.35;25.13;;;-0.20;1.00;;;;;;5051592;28;20760;-68
2021/01/17 08:59:35;;;;;;;94.82;24.23;;;-0.20;1.00;;;;;;5051393;28;20241;-68
2021/01/17 09:02:02;;;;;;;91.18;25.15;;;-0.10;1.00;;;;;;5048855;28;20209;-70
2021/01/17 09:04:29;;;;;;;98.03;22.80;;;-0.10;1.00;;;;;;5047457;28;20245;-70
2021/01/17 09:06:57;;;;;;;97.75;25.20;;;0.00;1.00;;;;;;5048811;28;20676;-70
2021/01/17 09:09:24;;;;;;;101.05;24.83;;;0.00;1.00;;;;;;5049154;28;20221;-70
2021/01/17 09:11:52;;;;;;;96.57;23.88;;;0.00;1.00;;;;;;5049715;28;20236;-70
2021/01/17 09:14:29;;;;;;;88.50;22.85;;;0.10;1.00;;;;;;5050236;28;20213;-70
2021/01/17 09:16:58;;;;;;;92.25;25.02;;;0.10;1.00;;;;;;5051212;28;20209;-69
2021/01/17 09:19:29;;;;;;;97.00;26.35;;;0.10;1.00;;;;;;5051229;28;20213;-70
2021/01/17 09:21:56;;;;;;;91.95;24.63;;;0.10;1.00;;;;;;5051095;28;20228;-70
2021/01/17 09:24:24;;;;;;;95.30;25.40;;;0.10;1.00;;;;;;5050403;28;20316;-70
2021/01/17 09:26:53;;;;;;;92.47;25.45;;;0.10;1.00;;;;;;5051254;28;20587;-69
2021/01/17 09:29:28;;;;;;;100.22;22.90;;;0.20;1.00;;;;;;5051097;28;20777;-69
2021/01/17 09:31:57;;;;;;;93.70;25.70;;;0.30;1.00;;;;;;5051146;28;20209;-69
2021/01/17 09:34:25;;;;;;;97.10;27.13;;;0.30;1.00;;;;;;5051142;28;20664;-69
2021/01/17 09:36:52;;;;;;;94.00;24.13;;;0.40;1.00;;;;;;5051453;28;20209;-70
2021/01/17 09:39:34;;;;;;;97.22;25.33;;;0.40;1.00;;;;;;5051259;28;20688;-69
2021/01/17 09:42:02;;;;;;;91.47;23.50;;;0.50;1.00;;;;;;5051106;28;20208;-69
2021/01/17 09:44:30;;;;;;;95.70;26.63;;;0.50;1.00;;;;;;5051140;28;20225;-70
2021/01/17 09:46:57;;;;;;;93.65;25.13;;;0.50;1.00;;;;;;5050816;28;20209;-69
2021/01/17 09:49:25;;;;;;;92.30;24.83;;;0.50;1.00;;;;;;5051327;28;20831;-70
2021/01/17 09:51:52;;;;;;;96.90;24.13;;;0.50;1.00;;;;;;5051136;28;20632;-69
2021/01/17 09:54:18;;;;;;;91.80;23.35;;;0.50;1.00;;;;;;5051258;28;20201;-69
2021/01/17 09:56:46;;;;;;;101.20;24.77;;;0.50;1.00;;;;;;5050995;28;20206;-69
2021/01/17 09:59:14;;;;;;;96.30;22.83;;;0.60;1.00;;;;;;5051080;28;20669;-69
2021/01/17 10:01:42;;;;;;;93.80;23.88;;;0.60;1.00;;;;;;5053391;28;20206;-69
2021/01/17 10:04:19;;;;;;;97.13;26.00;;;0.60;1.00;;;;;;5055019;28;20583;-69
2021/01/17 10:06:46;;;;;;;92.50;26.73;;;0.70;1.00;;;;;;5054821;28;20897;-70
2021/01/17 10:09:16;;;;;;;92.40;25.52;;;0.70;1.00;;;;;;5054869;28;20300;-70
2021/01/17 10:11:43;;;;;;;96.47;26.20;;;0.70;1.00;;;;;;5054917;28;20625;-69
2021/01/17 10:14:12;;;;;;;95.22;25.48;;;0.80;1.00;;;;;;5054244;28;20216;-69
2021/01/17 10:16:39;;;;;;;98.82;24.58;;;0.80;1.00;;;;;;5054683;28;20216;-69
2021/01/17 10:19:06;;;;;;;95.90;24.55;;;0.80;1.00;;;;;;5054498;28;20590;-69
2021/01/17 10:21:37;;;;;;;91.65;25.35;;;0.80;1.00;;;;;;5054638;28;20212;-69
2021/01/17 10:24:05;;;;;;;87.63;23.48;;;0.80;1.00;;;;;;5054795;28;20665;-69
2021/01/17 10:26:31;;;;;;;96.05;24.85;;;0.80;1.00;;;;;;5054352;28;20627;-69
2021/01/17 10:29:04;;;;;;;97.32;25.55;;;0.90;1.00;;;;;;5054456;28;20210;-69
2021/01/17 10:31:35;;;;;;;99.47;27.48;;;0.90;1.00;;;;;;5054485;28;20259;-69
2021/01/17 10:34:02;;;;;;;96.70;26.98;;;0.90;1.00;;;;;;5054309;28;20205;-69
2021/01/17 10:36:28;;;;;;;96.80;26.33;;;1.00;1.00;;;;;;5054315;28;20227;-69
2021/01/17 10:38:54;;;;;;;99.38;28.15;;;1.00;1.00;;;;;;5054123;28;20301;-70
2021/01/17 10:41:27;;;;;;;98.70;32.67;;;1.00;1.00;;;;;;5054091;28;20229;-70
2021/01/17 10:44:08;;;;;;;108.15;28.92;;;1.00;1.00;;;;;;5054119;28;20245;-69
2021/01/17 10:46:42;;;;;;;93.13;24.33;;;1.00;1.00;;;;;;5054208;28;20201;-70
2021/01/17 10:49:13;;;;;;;101.28;27.58;;;1.10;1.00;;;;;;5053995;28;20206;-70
2021/01/17 10:51:43;;;;;;;94.38;26.23;;;1.10;1.00;;;;;;5054400;28;20209;-70
2021/01/17 10:54:15;;;;;;;100.45;27.10;;;1.10;1.00;;;;;;5053903;28;20622;-70
2021/01/17 10:56:42;;;;;;;97.50;28.52;;;1.10;1.00;;;;;;5054146;28;20205;-69
2021/01/17 10:59:12;;;;;;;96.97;26.42;;;1.10;1.00;;;;;;5053833;28;20206;-69
2021/01/17 11:01:45;;;;;;;98.80;26.35;;;1.10;1.00;;;;;;5053871;28;20275;-69
2021/01/17 11:04:13;;;;;;;98.32;26.95;;;1.00;1.00;;;;;;5053231;28;20217;-70
2021/01/17 11:06:39;;;;;;;92.55;25.15;;;1.00;1.00;;;;;;5053899;28;20205;-70
2021/01/17 11:09:11;;;;;;;94.03;25.25;;;1.10;1.00;;;;;;5053519;28;20220;-69
2021/01/17 11:11:43;;;;;;;96.40;26.38;;;1.10;1.00;;;;;;5053338;28;20205;-69
2021/01/17 11:14:09;;;;;;;99.68;27.88;;;1.10;1.00;;;;;;5053223;28;20218;-69
2021/01/17 11:16:37;;;;;;;99.10;25.92;;;1.20;1.00;;;;;;5053258;28;20210;-69
2021/01/17 11:19:06;;;;;;;99.47;24.45;;;1.20;1.00;;;;;;5053496;28;20214;-70
2021/01/17 11:21:33;;;;;;;93.57;24.88;;;1.20;1.00;;;;;;5053604;28;20213;-69
2021/01/17 11:24:00;;;;;;;100.40;26.85;;;1.20;1.00;;;;;;5053392;28;20241;-69
2021/01/17 11:26:27;;;;;;;99.32;24.77;;;1.20;1.00;;;;;;5053303;28;20213;-70
2021/01/17 11:28:54;;;;;;;106.05;25.02;;;1.20;1.00;;;;;;5053370;28;20254;-69
2021/01/17 11:31:22;;;;;;;95.43;25.38;;;1.20;1.00;;;;;;5053058;28;20233;-69
2021/01/17 11:33:49;;;;;;;95.65;25.05;;;1.30;1.00;;;;;;5053109;28;20689;-70
2021/01/17 11:36:21;;;;;;;92.80;24.50;;;1.30;1.00;;;;;;5052983;28;20226;-69
2021/01/17 11:38:50;;;;;;;95.50;24.08;;;1.30;1.00;;;;;;5053139;28;20209;-69
2021/01/17 11:41:18;;;;;;;90.65;24.85;;;1.30;1.00;;;;;;5053058;28;20209;-71
2021/01/17 11:43:45;;;;;;;94.80;25.42;;;1.30;1.00;;;;;;5052748;28;20584;-69
2021/01/17 11:46:13;;;;;;;90.93;23.92;;;1.30;1.00;;;;;;5053166;28;20229;-69
2021/01/17 11:48:40;;;;;;;97.25;25.67;;;1.30;1.00;;;;;;5053175;28;20205;-69
2021/01/17 11:51:08;;;;;;;90.88;24.63;;;1.40;1.00;;;;;;5053112;28;20230;-70
2021/01/17 11:53:36;;;;;;;96.55;25.00;;;1.40;1.00;;;;;;5052829;28;20221;-69
2021/01/17 11:56:03;;;;;;;89.25;24.25;;;1.40;1.00;;;;;;5052566;28;20225;-70
2021/01/17 11:58:38;;;;;;;87.97;23.50;;;1.30;1.00;;;;;;5052647;28;20590;-69
2021/01/17 12:01:05;;;;;;;97.43;26.23;;;1.30;1.00;;;;;;5052974;28;20204;-70
2021/01/17 12:03:33;;;;;;;88.60;24.77;;;1.30;1.00;;;;;;5052642;28;20239;-70
2021/01/17 12:06:08;;;;;;;95.85;26.15;;;1.30;1.00;;;;;;5052716;28;20229;-70
2021/01/17 12:08:53;;;;;;;96.13;26.20;;;1.30;1.00;;;;;;5052401;28;20669;-69
2021/01/17 12:11:40;;;;;;;90.88;24.40;;;1.30;1.00;;;;;;5052451;28;20732;-69
2021/01/17 12:14:10;;;;;;;96.60;26.15;;;1.20;1.00;;;;;;5052484;28;20561;-69
2021/01/17 12:16:38;;;;;;;97.20;27.35;;;1.20;1.00;;;;;;5052431;28;20213;-70
2021/01/17 12:19:06;;;;;;;128.23;40.78;;;1.30;1.00;;;;;;5052551;28;20308;-71
2021/01/17 12:21:33;;;;;;;100.07;30.83;;;1.20;1.00;;;;;;5052629;28;20205;-71
2021/01/17 12:24:02;;;;;;;94.45;25.90;;;1.20;1.00;;;;;;5051540;28;20206;-72
2021/01/17 12:26:29;;;;;;;96.18;26.80;;;1.20;1.00;;;;;;5052284;28;20216;-70
2021/01/17 12:28:56;;;;;;;105.35;29.92;;;1.20;1.00;;;;;;5052145;28;20215;-71
2021/01/17 12:31:24;;;;;;;90.57;25.27;;;1.20;1.00;;;;;;5052131;28;20232;-70
2021/01/17 12:33:50;;;;;;;93.43;26.77;;;1.20;1.00;;;;;;5051823;28;20721;-70
2021/01/17 12:36:20;;;;;;;96.47;27.60;;;1.20;1.00;;;;;;5052038;28;20226;-70
2021/01/17 12:38:47;;;;;;;94.13;26.90;;;1.20;1.00;;;;;;5051607;28;20241;-70
2021/01/17 12:41:15;;;;;;;95.72;26.63;;;1.20;1.00;;;;;;5052167;28;20232;-70
2021/01/17 12:43:42;;;;;;;99.60;26.70;;;1.20;1.00;;;;;;5052614;28;20642;-70
2021/01/17 12:46:10;;;;;;;96.80;27.40;;;1.20;1.00;;;;;;5051707;28;20261;-71
2021/01/17 12:48:39;;;;;;;95.57;26.25;;;1.20;1.00;;;;;;5051678;28;20201;-71
2021/01/17 12:51:06;;;;;;;93.00;26.58;;;1.20;1.00;;;;;;5052024;28;20290;-70